createdAt,value
2018-07-09T00:00:21.480Z,33.30
2018-07-09T00:01:21.468Z,36.00
2018-07-09T00:02:21.515Z,36.00
2018-07-09T00:03:21.552Z,36.40
2018-07-09T00:04:21.595Z,34.90
2018-07-09T00:05:21.656Z,36.20
2018-07-09T00:06:21.829Z,37.50
2018-07-09T00:07:21.743Z,40.40
2018-07-09T00:08:21.781Z,43.50
2018-07-09T00:09:21.876Z,39.10
2018-07-09T00:10:21.868Z,40.90
2018-07-09T00:11:21.929Z,38.30
2018-07-09T00:12:21.966Z,39.00
2018-07-09T00:13:22.070Z,41.90
2018-07-09T00:14:22.069Z,40.00
2018-07-09T00:15:22.124Z,41.50
2018-07-09T00:16:22.145Z,39.40
2018-07-09T00:17:22.215Z,43.20
2018-07-09T00:18:22.228Z,44.40
2018-07-09T00:19:22.292Z,43.90
2018-07-09T00:20:22.358Z,39.70
2018-07-09T00:21:22.398Z,44.80
2018-07-09T00:22:22.449Z,39.20
2018-07-09T00:23:22.465Z,39.70
2018-07-09T00:24:22.523Z,42.50
2018-07-09T00:25:22.551Z,45.30
2018-07-09T00:26:22.604Z,47.30
2018-07-09T00:27:22.677Z,49.30
2018-07-09T00:28:22.698Z,48.90
2018-07-09T00:29:22.935Z,47.40
2018-07-09T00:30:22.795Z,45.90
2018-07-09T00:31:22.840Z,45.20
2018-07-09T00:32:22.983Z,45.60
2018-07-09T00:33:22.925Z,45.70
2018-07-09T00:34:22.977Z,45.90
2018-07-09T00:35:23.023Z,42.80
2018-07-09T00:36:23.112Z,42.10
2018-07-09T00:37:23.104Z,43.80
2018-07-09T00:38:23.152Z,41.90
2018-07-09T00:39:23.206Z,41.10
2018-07-09T00:40:23.259Z,41.20
2018-07-09T00:41:23.287Z,44.50
2018-07-09T00:42:23.356Z,46.00
2018-07-09T00:43:23.371Z,42.50
2018-07-09T00:44:23.429Z,41.50
2018-07-09T00:45:23.457Z,47.90
2018-07-09T00:46:23.525Z,48.10
2018-07-09T00:47:23.561Z,47.30
2018-07-09T00:48:23.621Z,44.20
2018-07-09T00:49:23.644Z,47.90
2018-07-09T00:50:23.723Z,49.30
2018-07-09T00:51:23.740Z,47.90
2018-07-09T00:52:23.799Z,51.60
2018-07-09T00:53:23.823Z,51.10
2018-07-09T00:54:23.902Z,49.50
2018-07-09T00:55:23.952Z,51.00
2018-07-09T00:56:23.986Z,50.20
2018-07-09T00:57:24.036Z,54.00
2018-07-09T00:58:24.107Z,53.70
2018-07-09T00:59:24.103Z,53.60
2018-07-09T01:00:24.171Z,51.50
2018-07-09T01:01:24.203Z,60.50
2018-07-09T01:02:24.244Z,54.90
2018-07-09T01:03:24.304Z,54.10
2018-07-09T01:04:24.338Z,54.50
2018-07-09T01:05:24.406Z,52.00
2018-07-09T01:06:24.458Z,60.10
2018-07-09T01:07:24.486Z,54.30
2018-07-09T01:08:24.584Z,56.00
2018-07-09T01:09:24.572Z,61.20
2018-07-09T01:10:24.612Z,59.70
2018-07-09T01:11:24.662Z,55.10
2018-07-09T01:12:24.743Z,54.60
2018-07-09T01:13:24.743Z,59.50
2018-07-09T01:14:24.805Z,58.20
2018-07-09T01:15:24.824Z,58.80
2018-07-09T01:16:24.921Z,54.50
2018-07-09T01:17:24.984Z,54.90
2018-07-09T01:18:24.977Z,50.70
2018-07-09T01:19:25.045Z,50.30
2018-07-09T01:20:25.105Z,52.00
2018-07-09T01:21:25.152Z,50.40
2018-07-09T01:22:25.351Z,51.10
2018-07-09T01:23:25.188Z,52.70
2018-07-09T01:24:25.245Z,56.80
2018-07-09T01:25:25.295Z,56.70
2018-07-09T01:26:25.347Z,55.80
2018-07-09T01:27:25.373Z,63.50
2018-07-09T01:28:25.467Z,62.90
2018-07-09T01:29:25.487Z,55.20
2018-07-09T01:30:25.517Z,55.10
2018-07-09T01:31:25.562Z,54.60
2018-07-09T01:32:25.600Z,58.30
2018-07-09T01:33:25.662Z,58.80
2018-07-09T01:34:25.694Z,58.80
2018-07-09T01:35:25.740Z,58.40
2018-07-09T01:36:25.795Z,57.30
2018-07-09T01:37:25.820Z,57.60
2018-07-09T01:38:25.856Z,69.50
2018-07-09T01:39:25.937Z,61.60
2018-07-09T01:40:25.952Z,66.40
2018-07-09T01:41:26.019Z,56.20
2018-07-09T01:42:26.031Z,57.60
2018-07-09T01:43:26.088Z,58.10
2018-07-09T01:44:26.149Z,63.50
2018-07-09T01:45:26.193Z,58.60
2018-07-09T01:46:26.242Z,58.20
2018-07-09T01:47:26.277Z,57.70
2018-07-09T01:48:26.332Z,60.50
2018-07-09T01:49:26.408Z,57.00
2018-07-09T01:50:26.398Z,59.10
2018-07-09T01:51:26.483Z,61.10
2018-07-09T01:52:26.502Z,57.50
2018-07-09T01:53:26.554Z,59.70
2018-07-09T01:54:26.612Z,59.50
2018-07-09T01:55:26.647Z,67.30
2018-07-09T01:56:26.675Z,65.70
2018-07-09T01:57:26.746Z,60.40
2018-07-09T01:58:26.746Z,65.60
2018-07-09T01:59:26.815Z,63.30
2018-07-09T02:00:26.888Z,64.20
2018-07-09T02:01:26.914Z,63.10
2018-07-09T02:02:26.929Z,63.70
2018-07-09T02:03:27.015Z,66.50
2018-07-09T02:04:27.039Z,65.90
2018-07-09T02:05:27.126Z,69.70
2018-07-09T02:06:27.110Z,79.00
2018-07-09T02:07:27.197Z,75.40
2018-07-09T02:08:27.246Z,93.30
2018-07-09T02:09:27.271Z,98.00
2018-07-09T02:10:27.327Z,104.30
2018-07-09T02:12:27.395Z,102.40
2018-07-09T02:13:27.451Z,115.60
2018-07-09T02:14:27.547Z,128.10
2018-07-09T02:15:27.540Z,115.50
2018-07-09T02:16:27.596Z,116.50
2018-07-09T02:17:27.612Z,136.20
2018-07-09T02:18:27.686Z,128.50
2018-07-09T02:19:27.721Z,124.30
2018-07-09T02:20:27.819Z,126.10
2018-07-09T02:21:27.805Z,118.60
2018-07-09T02:22:27.844Z,119.40
2018-07-09T02:23:27.912Z,119.90
2018-07-09T02:24:27.945Z,104.40
2018-07-09T02:25:28.000Z,108.20
2018-07-09T02:26:28.024Z,114.70
2018-07-09T02:27:28.085Z,133.00
2018-07-09T02:28:28.125Z,134.60
2018-07-09T02:29:28.173Z,136.70
2018-07-09T02:30:28.227Z,136.30
2018-07-09T02:31:28.264Z,149.40
2018-07-09T02:32:28.293Z,150.70
2018-07-09T02:33:28.539Z,151.40
2018-07-09T02:34:28.376Z,154.10
2018-07-09T02:35:28.417Z,147.30
2018-07-09T02:36:28.497Z,142.20
2018-07-09T02:37:28.548Z,137.40
2018-07-09T02:38:28.572Z,141.80
2018-07-09T02:39:28.641Z,148.60
2018-07-09T02:40:28.661Z,146.20
2018-07-09T02:41:28.728Z,136.60
2018-07-09T02:42:28.752Z,146.20
2018-07-09T02:43:28.797Z,143.30
2018-07-09T02:44:29.072Z,139.80
2018-07-09T02:45:28.912Z,141.10
2018-07-09T02:46:28.930Z,134.00
2018-07-09T02:47:28.972Z,129.90
2018-07-09T02:48:29.034Z,134.70
2018-07-09T02:49:29.093Z,138.00
2018-07-09T02:50:29.123Z,133.00
2018-07-09T02:51:29.159Z,131.10
2018-07-09T02:52:29.188Z,128.00
2018-07-09T02:53:29.271Z,128.80
2018-07-09T02:54:29.328Z,127.70
2018-07-09T02:55:29.358Z,128.50
2018-07-09T02:56:29.384Z,116.50
2018-07-09T02:57:29.412Z,123.10
2018-07-09T02:58:29.486Z,125.70
2018-07-09T02:59:29.519Z,127.50
2018-07-09T03:00:29.572Z,121.90
2018-07-09T03:01:29.607Z,128.90
2018-07-09T03:02:29.661Z,124.20
2018-07-09T03:03:29.702Z,121.60
2018-07-09T03:04:29.748Z,126.20
2018-07-09T03:05:29.797Z,121.70
2018-07-09T03:06:29.813Z,121.40
2018-07-09T03:07:29.876Z,125.00
2018-07-09T03:08:29.924Z,131.10
2018-07-09T03:09:30.015Z,123.30
2018-07-09T03:10:29.996Z,127.60
2018-07-09T03:11:30.054Z,130.30
2018-07-09T03:12:30.111Z,122.30
2018-07-09T03:13:30.120Z,125.30
2018-07-09T03:14:30.195Z,133.90
2018-07-09T03:15:30.235Z,117.90
2018-07-09T03:16:30.523Z,118.90
2018-07-09T03:17:30.312Z,120.20
2018-07-09T03:18:30.344Z,115.50
2018-07-09T03:19:30.431Z,121.30
2018-07-09T03:20:30.460Z,123.40
2018-07-09T03:21:30.480Z,120.90
2018-07-09T03:22:30.548Z,119.00
2018-07-09T03:23:30.607Z,122.70
2018-07-09T03:24:30.629Z,125.40
2018-07-09T03:25:30.689Z,117.00
2018-07-09T03:26:30.712Z,114.00
2018-07-09T03:27:30.786Z,119.80
2018-07-09T03:28:31.004Z,119.20
2018-07-09T03:29:30.869Z,122.10
2018-07-09T03:30:30.913Z,123.50
2018-07-09T03:31:30.951Z,132.40
2018-07-09T03:32:31.057Z,152.20
2018-07-09T03:33:31.021Z,162.10
2018-07-09T03:34:31.088Z,163.30
2018-07-09T03:35:31.137Z,158.60
2018-07-09T03:36:31.177Z,165.80
2018-07-09T03:37:31.194Z,163.10
2018-07-09T03:38:31.248Z,166.80
2018-07-09T03:39:31.285Z,160.60
2018-07-09T03:40:31.354Z,160.70
2018-07-09T03:41:31.398Z,162.50
2018-07-09T03:42:31.455Z,156.00
2018-07-09T03:43:31.473Z,159.00
2018-07-09T03:44:31.526Z,148.20
2018-07-09T03:45:31.626Z,154.60
2018-07-09T03:46:31.798Z,156.90
2018-07-09T03:47:31.659Z,153.00
2018-07-09T03:48:31.715Z,162.90
2018-07-09T03:49:31.761Z,153.10
2018-07-09T03:50:31.781Z,151.60
2018-07-09T03:51:31.859Z,166.90
2018-07-09T03:52:31.882Z,161.20
2018-07-09T03:53:31.913Z,165.20
2018-07-09T03:54:32.014Z,155.60
2018-07-09T03:55:32.017Z,165.40
2018-07-09T03:56:32.058Z,150.90
2018-07-09T03:57:32.125Z,144.90
2018-07-09T03:58:32.424Z,148.10
2018-07-09T03:59:32.199Z,159.20
2018-07-09T04:00:32.253Z,170.50
2018-07-09T04:01:32.275Z,167.30
2018-07-09T04:02:32.311Z,161.90
2018-07-09T04:03:32.388Z,157.80
2018-07-09T04:04:32.415Z,160.40
2018-07-09T04:05:32.461Z,169.90
2018-07-09T04:06:32.558Z,181.50
2018-07-09T04:07:32.545Z,185.40
2018-07-09T04:08:32.598Z,185.60
2018-07-09T04:09:32.630Z,176.30
2018-07-09T04:10:32.874Z,196.20
2018-07-09T04:11:32.707Z,193.90
2018-07-09T04:12:32.791Z,201.80
2018-07-09T04:13:32.850Z,193.80
2018-07-09T04:14:32.871Z,204.40
2018-07-09T04:15:32.906Z,206.30
2018-07-09T04:16:32.942Z,196.20
2018-07-09T04:17:33.000Z,215.30
2018-07-09T04:18:33.045Z,196.80
2018-07-09T04:19:33.087Z,194.20
2018-07-09T04:20:33.114Z,185.40
2018-07-09T04:21:33.199Z,205.70
2018-07-09T04:22:33.239Z,207.50
2018-07-09T04:23:33.259Z,210.20
2018-07-09T04:24:33.347Z,193.00
2018-07-09T04:25:33.564Z,202.60
2018-07-09T04:26:33.402Z,212.00
2018-07-09T04:27:33.439Z,220.00
2018-07-09T04:28:33.494Z,231.90
2018-07-09T04:29:33.528Z,237.20
2018-07-09T04:30:33.560Z,212.60
2018-07-09T04:31:33.621Z,217.50
2018-07-09T04:32:33.677Z,213.60
2018-07-09T04:33:33.726Z,211.80
2018-07-09T04:34:33.752Z,207.40
2018-07-09T04:35:33.802Z,204.00
2018-07-09T04:36:33.854Z,218.50
2018-07-09T04:37:33.885Z,219.00
2018-07-09T04:38:33.947Z,233.60
2018-07-09T04:39:33.979Z,245.00
2018-07-09T04:40:34.024Z,215.10
2018-07-09T04:41:34.051Z,223.70
2018-07-09T04:42:34.094Z,227.60
2018-07-09T04:43:34.175Z,241.30
2018-07-09T04:44:34.204Z,236.30
2018-07-09T04:45:34.253Z,216.50
2018-07-09T04:46:34.293Z,200.90
2018-07-09T04:47:34.357Z,189.10
2018-07-09T04:48:34.380Z,219.70
2018-07-09T04:49:34.431Z,285.00
2018-07-09T04:50:34.480Z,289.20
2018-07-09T04:51:34.509Z,290.40
2018-07-09T04:52:34.817Z,287.40
2018-07-09T04:53:34.773Z,281.10
2018-07-09T04:54:34.633Z,273.80
2018-07-09T04:55:34.688Z,273.70
2018-07-09T04:56:34.779Z,254.10
2018-07-09T04:57:34.774Z,270.10
2018-07-09T04:58:34.832Z,278.70
2018-07-09T04:59:34.879Z,289.10
2018-07-09T05:00:34.893Z,277.60
2018-07-09T05:01:34.966Z,278.20
2018-07-09T05:02:35.012Z,277.40
2018-07-09T05:03:35.029Z,291.20
2018-07-09T05:04:35.299Z,274.10
2018-07-09T05:05:35.187Z,249.60
2018-07-09T05:06:35.188Z,268.10
2018-07-09T05:07:35.218Z,266.30
2018-07-09T05:08:35.259Z,274.30
2018-07-09T05:09:35.315Z,274.20
2018-07-09T05:10:35.376Z,276.40
2018-07-09T05:11:35.398Z,288.50
2018-07-09T05:12:35.436Z,308.00
2018-07-09T05:13:35.494Z,299.10
2018-07-09T05:14:35.531Z,320.90
2018-07-09T05:15:35.551Z,311.60
2018-07-09T05:16:35.877Z,294.60
2018-07-09T05:17:35.696Z,297.00
2018-07-09T05:18:35.723Z,292.50
2018-07-09T05:19:35.732Z,303.60
2018-07-09T05:20:35.831Z,307.20
2018-07-09T05:21:35.834Z,295.90
2018-07-09T05:22:35.883Z,301.10
2018-07-09T05:23:35.983Z,313.50
2018-07-09T05:24:35.992Z,310.20
2018-07-09T05:25:36.017Z,300.60
2018-07-09T05:26:36.079Z,302.90
2018-07-09T05:27:36.129Z,291.30
2018-07-09T05:28:36.129Z,309.80
2018-07-09T05:29:36.188Z,315.50
2018-07-09T05:30:36.257Z,298.70
2018-07-09T05:31:36.290Z,305.10
2018-07-09T05:32:36.372Z,309.40
2018-07-09T05:33:36.373Z,300.60
2018-07-09T05:34:36.418Z,333.00
2018-07-09T05:35:36.433Z,321.10
2018-07-09T05:36:36.511Z,313.90
2018-07-09T05:37:36.537Z,316.20
2018-07-09T05:38:36.583Z,300.70
2018-07-09T05:39:36.901Z,306.20
2018-07-09T05:40:36.680Z,307.20
2018-07-09T05:41:36.723Z,305.60
2018-07-09T05:42:36.773Z,319.90
2018-07-09T05:43:36.794Z,314.80
2018-07-09T05:44:36.842Z,318.00
2018-07-09T05:45:36.896Z,302.80
2018-07-09T05:46:36.985Z,319.80
2018-07-09T05:47:37.010Z,314.40
2018-07-09T05:48:37.049Z,312.10
2018-07-09T05:49:37.095Z,337.10
2018-07-09T05:50:37.109Z,296.00
2018-07-09T05:51:37.410Z,330.50
2018-07-09T05:52:37.211Z,302.00
2018-07-09T05:53:37.290Z,317.90
2018-07-09T05:54:37.307Z,311.60
2018-07-09T05:55:37.328Z,300.10
2018-07-09T05:56:37.372Z,324.40
2018-07-09T05:57:37.419Z,327.50
2018-07-09T05:58:37.525Z,326.90
2018-07-09T05:59:37.526Z,316.70
2018-07-09T06:00:37.558Z,310.00
2018-07-09T06:01:37.620Z,313.00
2018-07-09T06:02:37.884Z,326.90
2018-07-09T06:03:37.716Z,331.00
2018-07-09T06:04:37.724Z,313.40
2018-07-09T06:05:37.828Z,317.80
2018-07-09T06:06:37.833Z,323.40
2018-07-09T06:07:37.915Z,316.10
2018-07-09T06:08:37.913Z,321.30
2018-07-09T06:09:37.974Z,354.30
2018-07-09T06:10:37.993Z,349.30
2018-07-09T06:11:38.045Z,347.30
2018-07-09T06:12:38.110Z,337.90
2018-07-09T06:13:38.192Z,347.80
2018-07-09T06:14:38.417Z,377.30
2018-07-09T06:15:38.259Z,387.40
2018-07-09T06:16:38.274Z,376.10
2018-07-09T06:17:38.301Z,370.50
2018-07-09T06:18:38.345Z,375.30
2018-07-09T06:19:38.416Z,385.70
2018-07-09T06:20:38.426Z,358.40
2018-07-09T06:21:38.476Z,382.10
2018-07-09T06:22:38.538Z,356.50
2018-07-09T06:23:38.595Z,361.30
2018-07-09T06:24:38.637Z,357.40
2018-07-09T06:25:38.674Z,343.80
2018-07-09T06:26:38.908Z,339.10
2018-07-09T06:27:38.762Z,337.00
2018-07-09T06:28:38.818Z,361.60
2018-07-09T06:29:38.850Z,370.60
2018-07-09T06:30:38.898Z,366.00
2018-07-09T06:31:38.970Z,396.10
2018-07-09T06:32:38.944Z,403.70
2018-07-09T06:33:39.018Z,405.70
2018-07-09T06:34:39.063Z,395.90
2018-07-09T06:35:39.117Z,385.90
2018-07-09T06:36:39.163Z,401.60
2018-07-09T06:37:39.418Z,400.90
2018-07-09T06:38:39.220Z,446.10
2018-07-09T06:39:39.277Z,514.80
2018-07-09T06:40:39.333Z,518.70
2018-07-09T06:41:39.362Z,504.60
2018-07-09T06:42:39.423Z,506.80
2018-07-09T06:43:39.477Z,500.60
2018-07-09T06:44:39.543Z,476.40
2018-07-09T06:45:39.551Z,524.20
2018-07-09T06:46:39.588Z,501.10
2018-07-09T06:47:39.626Z,466.70
2018-07-09T06:48:39.692Z,428.90
2018-07-09T06:49:39.739Z,417.60
2018-07-09T06:50:39.779Z,405.50
2018-07-09T06:51:39.818Z,374.90
2018-07-09T06:52:40.045Z,293.00
2018-07-09T06:53:39.902Z,283.30
2018-07-09T06:54:39.941Z,259.90
2018-07-09T06:55:39.989Z,228.30
2018-07-09T06:56:40.000Z,231.60
2018-07-09T06:57:40.060Z,208.30
2018-07-09T06:58:40.103Z,241.60
2018-07-09T06:59:40.130Z,210.20
2018-07-09T07:00:40.184Z,230.40
2018-07-09T07:01:40.220Z,186.50
2018-07-09T07:02:40.254Z,175.90
2018-07-09T07:03:40.499Z,178.60
2018-07-09T07:04:40.368Z,204.70
2018-07-09T07:05:40.403Z,163.10
2018-07-09T07:06:40.459Z,200.30
2018-07-09T07:07:40.494Z,149.20
2018-07-09T07:08:40.540Z,179.70
2018-07-09T07:09:40.581Z,167.60
2018-07-09T07:10:40.635Z,138.40
2018-07-09T07:11:40.670Z,125.90
2018-07-09T07:12:40.751Z,118.10
2018-07-09T07:13:40.759Z,119.40
2018-07-09T07:14:40.793Z,130.80
2018-07-09T07:15:40.862Z,117.60
2018-07-09T07:16:40.907Z,123.50
2018-07-09T07:17:40.936Z,121.50
2018-07-09T07:18:40.989Z,132.70
2018-07-09T07:19:41.056Z,120.00
2018-07-09T07:20:41.098Z,119.50
2018-07-09T07:21:41.104Z,116.90
2018-07-09T07:22:41.150Z,120.20
2018-07-09T07:23:41.185Z,127.10
2018-07-09T07:24:41.227Z,132.00
2018-07-09T07:25:41.311Z,126.50
2018-07-09T07:26:41.309Z,128.60
2018-07-09T07:27:41.354Z,125.50
2018-07-09T07:28:41.605Z,130.10
2018-07-09T07:29:41.428Z,133.00
2018-07-09T07:30:41.497Z,136.80
2018-07-09T07:31:41.547Z,118.40
2018-07-09T07:32:41.634Z,183.00
2018-07-09T07:33:41.649Z,149.80
2018-07-09T07:34:41.651Z,131.00
2018-07-09T07:35:41.721Z,124.70
2018-07-09T07:36:41.759Z,123.30
2018-07-09T07:37:41.778Z,134.40
2018-07-09T07:38:41.870Z,122.30
2018-07-09T07:39:42.094Z,123.10
2018-07-09T07:40:41.941Z,134.90
2018-07-09T07:41:41.967Z,129.50
2018-07-09T07:42:42.007Z,128.50
2018-07-09T07:43:42.038Z,149.80
2018-07-09T07:44:42.097Z,146.10
2018-07-09T07:45:42.178Z,136.60
2018-07-09T07:46:42.179Z,131.20
2018-07-09T07:47:42.268Z,140.50
2018-07-09T07:48:42.267Z,139.40
2018-07-09T07:49:42.356Z,146.60
2018-07-09T07:50:42.408Z,140.60
2018-07-09T07:51:42.590Z,146.60
2018-07-09T07:52:42.439Z,153.40
2018-07-09T07:53:42.485Z,151.20
2018-07-09T07:54:42.525Z,156.10
2018-07-09T07:55:42.602Z,169.20
2018-07-09T07:56:42.605Z,167.30
2018-07-09T07:57:42.648Z,186.10
2018-07-09T07:58:42.699Z,171.90
2018-07-09T07:59:42.719Z,167.90
2018-07-09T08:00:42.795Z,188.40
2018-07-09T08:01:42.838Z,172.10
2018-07-09T08:02:42.912Z,175.30
2018-07-09T08:03:43.118Z,185.60
2018-07-09T08:04:42.964Z,187.10
2018-07-09T08:05:43.002Z,178.50
2018-07-09T08:06:43.082Z,165.60
2018-07-09T08:07:43.099Z,175.80
2018-07-09T08:08:43.111Z,188.70
2018-07-09T08:09:43.238Z,180.60
2018-07-09T08:10:43.229Z,208.70
2018-07-09T08:11:48.555Z,217.90
2018-07-09T08:13:43.390Z,201.60
2018-07-09T08:14:43.613Z,184.00
2018-07-09T08:15:43.418Z,174.10
2018-07-09T08:16:43.484Z,159.20
2018-07-09T08:17:43.558Z,176.30
2018-07-09T08:18:43.576Z,187.50
2018-07-09T08:19:43.614Z,170.60
2018-07-09T08:20:43.642Z,159.20
2018-07-09T08:21:43.702Z,157.70
2018-07-09T08:22:43.742Z,164.00
2018-07-09T08:23:43.772Z,165.50
2018-07-09T08:24:43.835Z,163.80
2018-07-09T08:25:44.169Z,167.90
2018-07-09T08:26:43.910Z,159.90
2018-07-09T08:27:43.939Z,175.30
2018-07-09T08:28:43.999Z,171.30
2018-07-09T08:29:44.076Z,172.90
2018-07-09T08:30:44.132Z,172.60
2018-07-09T08:31:44.134Z,153.50
2018-07-09T08:32:44.213Z,168.80
2018-07-09T08:33:44.210Z,164.50
2018-07-09T08:34:44.249Z,161.70
2018-07-09T08:35:44.303Z,153.40
2018-07-09T08:36:44.345Z,178.80
2018-07-09T08:37:44.385Z,172.30
2018-07-09T08:38:44.438Z,160.20
2018-07-09T08:39:44.517Z,156.40
2018-07-09T08:40:44.530Z,158.50
2018-07-09T08:41:44.568Z,155.30
2018-07-09T08:42:44.613Z,166.90
2018-07-09T08:43:44.639Z,158.50
2018-07-09T08:44:44.728Z,161.10
2018-07-09T08:45:44.738Z,162.00
2018-07-09T08:46:44.765Z,178.80
2018-07-09T08:47:44.824Z,181.80
2018-07-09T08:48:44.849Z,200.70
2018-07-09T08:49:44.914Z,178.40
2018-07-09T08:50:44.949Z,180.90
2018-07-09T08:51:45.178Z,193.60
2018-07-09T08:52:45.054Z,206.60
2018-07-09T08:53:45.101Z,216.70
2018-07-09T08:54:45.142Z,228.80
2018-07-09T08:55:45.174Z,201.50
2018-07-09T08:56:45.195Z,200.40
2018-07-09T08:57:45.260Z,198.90
2018-07-09T08:58:45.310Z,194.30
2018-07-09T08:59:45.351Z,244.40
2018-07-09T09:00:45.382Z,197.40
2018-07-09T09:01:45.424Z,190.70
2018-07-09T09:02:45.657Z,163.40
2018-07-09T09:03:45.587Z,174.50
2018-07-09T09:04:45.547Z,217.80
2018-07-09T09:05:45.618Z,195.20
2018-07-09T09:06:45.645Z,166.60
2018-07-09T09:07:45.685Z,167.90
2018-07-09T09:08:45.725Z,139.20
2018-07-09T09:09:45.815Z,165.90
2018-07-09T09:10:45.824Z,172.20
2018-07-09T09:11:45.873Z,170.30
2018-07-09T09:12:45.947Z,137.00
2018-07-09T09:13:45.960Z,143.30
2018-07-09T09:14:45.979Z,141.60
2018-07-09T09:15:46.056Z,133.90
2018-07-09T09:16:46.131Z,127.20
2018-07-09T09:17:46.121Z,132.30
2018-07-09T09:18:46.414Z,143.30
2018-07-09T09:19:46.224Z,139.70
2018-07-09T09:20:46.295Z,138.70
2018-07-09T09:21:46.307Z,134.50
2018-07-09T09:22:46.344Z,140.50
2018-07-09T09:23:46.395Z,133.70
2018-07-09T09:24:46.430Z,136.90
2018-07-09T09:25:46.458Z,135.00
2018-07-09T09:26:46.517Z,140.60
2018-07-09T09:27:46.560Z,135.60
2018-07-09T09:28:46.650Z,136.30
2018-07-09T09:29:46.848Z,145.90
2018-07-09T09:30:46.686Z,139.30
2018-07-09T09:31:46.773Z,149.40
2018-07-09T09:32:46.781Z,143.20
2018-07-09T09:33:46.844Z,162.70
2018-07-09T09:34:46.869Z,159.90
2018-07-09T09:35:46.973Z,136.50
2018-07-09T09:36:46.961Z,167.30
2018-07-09T09:37:47.023Z,200.80
2018-07-09T09:38:47.063Z,205.80
2018-07-09T09:39:47.105Z,181.50
2018-07-09T09:40:47.331Z,232.80
2018-07-09T09:41:47.174Z,241.30
2018-07-09T09:42:47.211Z,252.50
2018-07-09T09:43:47.271Z,255.30
2018-07-09T09:44:47.309Z,251.00
2018-07-09T09:45:47.349Z,229.90
2018-07-09T09:46:47.391Z,188.60
2018-07-09T09:47:47.428Z,213.00
2018-07-09T09:48:47.479Z,196.10
2018-07-09T09:49:47.540Z,226.50
2018-07-09T09:50:47.562Z,240.00
2018-07-09T09:51:47.600Z,252.00
2018-07-09T09:52:47.846Z,268.10
2018-07-09T09:53:47.704Z,283.20
2018-07-09T09:54:47.738Z,268.00
2018-07-09T09:55:47.790Z,288.70
2018-07-09T09:56:47.843Z,266.80
2018-07-09T09:57:47.893Z,272.10
2018-07-09T09:58:47.950Z,215.40
2018-07-09T09:59:47.938Z,243.90
2018-07-09T10:00:48.013Z,205.70
2018-07-09T10:01:48.101Z,212.10
2018-07-09T10:02:48.082Z,209.00
2018-07-09T10:03:48.341Z,242.90
2018-07-09T10:04:48.166Z,272.00
2018-07-09T10:05:48.221Z,245.40
2018-07-09T10:06:48.268Z,229.90
2018-07-09T10:07:48.323Z,224.40
2018-07-09T10:08:48.368Z,297.80
2018-07-09T10:09:48.396Z,283.00
2018-07-09T10:10:48.433Z,297.20
2018-07-09T10:11:48.478Z,301.90
2018-07-09T10:12:48.531Z,293.40
2018-07-09T10:13:48.586Z,222.00
2018-07-09T10:14:48.862Z,166.70
2018-07-09T10:15:48.694Z,216.60
2018-07-09T10:16:48.784Z,192.60
2018-07-09T10:17:48.732Z,196.70
2018-07-09T10:18:48.794Z,224.60
2018-07-09T10:19:48.818Z,230.30
2018-07-09T10:20:48.878Z,221.60
2018-07-09T10:21:48.902Z,260.90
2018-07-09T10:22:48.978Z,158.50
2018-07-09T10:23:49.009Z,156.60
2018-07-09T10:24:49.049Z,177.50
2018-07-09T10:25:49.122Z,175.50
2018-07-09T10:26:49.136Z,224.90
2018-07-09T10:27:49.160Z,156.20
2018-07-09T10:28:49.210Z,182.80
2018-07-09T10:29:49.282Z,153.90
2018-07-09T10:30:49.304Z,155.30
2018-07-09T10:31:49.367Z,174.30
2018-07-09T10:32:49.388Z,162.60
2018-07-09T10:33:49.456Z,169.90
2018-07-09T10:34:49.473Z,175.30
2018-07-09T10:35:49.531Z,158.60
2018-07-09T10:36:49.613Z,149.30
2018-07-09T10:37:49.608Z,137.70
2018-07-09T10:38:49.694Z,129.00
2018-07-09T10:39:49.676Z,117.50
2018-07-09T10:40:49.760Z,116.80
2018-07-09T10:41:49.777Z,126.40
2018-07-09T10:42:49.823Z,122.10
2018-07-09T10:43:49.870Z,113.20
2018-07-09T10:44:49.927Z,103.60
2018-07-09T10:45:49.987Z,100.10
2018-07-09T10:46:50.023Z,104.50
2018-07-09T10:47:50.064Z,135.40
2018-07-09T10:48:50.117Z,154.00
2018-07-09T10:49:50.158Z,146.80
2018-07-09T10:50:50.213Z,148.00
2018-07-09T10:51:50.272Z,153.40
2018-07-09T10:52:50.277Z,157.00
2018-07-09T10:53:50.320Z,151.10
2018-07-09T10:54:50.363Z,145.20
2018-07-09T10:55:50.410Z,168.40
2018-07-09T10:56:50.433Z,174.60
2018-07-09T10:57:50.756Z,145.00
2018-07-09T10:58:50.538Z,132.80
2018-07-09T10:59:50.593Z,138.80
2018-07-09T11:00:50.682Z,134.70
2018-07-09T11:01:50.660Z,142.40
2018-07-09T11:02:50.773Z,144.70
2018-07-09T11:03:50.755Z,156.00
2018-07-09T11:04:50.810Z,155.00
2018-07-09T11:05:50.860Z,146.20
2018-07-09T11:06:50.911Z,109.30
2018-07-09T11:07:50.957Z,105.50
2018-07-09T11:08:50.969Z,93.20
2018-07-09T11:09:51.313Z,102.60
2018-07-09T11:10:51.083Z,100.10
2018-07-09T11:11:51.139Z,103.10
2018-07-09T11:12:51.167Z,101.20
2018-07-09T11:13:51.199Z,97.10
2018-07-09T11:14:51.279Z,100.30
2018-07-09T11:15:51.305Z,112.90
2018-07-09T11:16:51.337Z,127.20
2018-07-09T11:17:51.411Z,127.00
2018-07-09T11:18:51.423Z,119.30
2018-07-09T11:19:51.537Z,115.00
2018-07-09T11:20:51.529Z,101.50
2018-07-09T11:21:51.595Z,98.60
2018-07-09T11:22:51.604Z,82.80
2018-07-09T11:23:51.680Z,86.40
2018-07-09T11:24:51.697Z,84.50
2018-07-09T11:25:51.760Z,83.10
2018-07-09T11:26:51.848Z,86.50
2018-07-09T11:27:51.841Z,84.50
2018-07-09T11:28:51.958Z,89.60
2018-07-09T11:29:51.962Z,109.30
2018-07-09T11:30:51.991Z,107.10
2018-07-09T11:31:52.084Z,96.30
2018-07-09T11:32:52.083Z,99.90
2018-07-09T11:33:52.152Z,113.00
2018-07-09T11:34:52.215Z,96.40
2018-07-09T11:35:52.225Z,100.80
2018-07-09T11:36:52.290Z,90.50
2018-07-09T11:37:52.310Z,97.30
2018-07-09T11:38:52.335Z,107.10
2018-07-09T11:39:52.407Z,105.40
2018-07-09T11:40:52.437Z,99.70
2018-07-09T11:41:52.692Z,106.80
2018-07-09T11:42:52.543Z,107.50
2018-07-09T11:43:52.584Z,112.70
2018-07-09T11:44:52.706Z,118.20
2018-07-09T11:45:52.672Z,120.30
2018-07-09T11:46:52.720Z,117.90
2018-07-09T11:47:52.772Z,110.10
2018-07-09T11:48:52.805Z,112.70
2018-07-09T11:49:52.845Z,104.50
2018-07-09T11:50:52.922Z,96.80
2018-07-09T11:51:52.960Z,97.80
2018-07-09T11:52:52.993Z,94.50
2018-07-09T11:53:53.063Z,102.70
2018-07-09T11:54:53.097Z,95.60
2018-07-09T11:55:53.129Z,92.60
2018-07-09T11:56:53.183Z,101.90
2018-07-09T11:57:53.225Z,95.10
2018-07-09T11:58:53.324Z,92.90
2018-07-09T11:59:53.306Z,95.80
2018-07-09T12:00:53.389Z,95.20
2018-07-09T12:01:53.462Z,94.60
2018-07-09T12:02:53.461Z,95.30
2018-07-09T12:03:53.526Z,97.30
2018-07-09T12:04:53.700Z,93.70
2018-07-09T12:05:53.642Z,104.90
2018-07-09T12:06:53.644Z,104.20
2018-07-09T12:07:53.713Z,91.50
2018-07-09T12:08:53.756Z,72.50
2018-07-09T12:09:53.788Z,78.80
2018-07-09T12:10:53.883Z,79.10
2018-07-09T12:11:53.924Z,81.60
2018-07-09T12:12:53.909Z,85.50
2018-07-09T12:13:53.991Z,75.10
2018-07-09T12:14:54.056Z,81.40
2018-07-09T12:15:54.105Z,86.20
2018-07-09T12:16:54.168Z,84.10
2018-07-09T12:17:54.177Z,89.60
2018-07-09T12:18:54.206Z,67.20
2018-07-09T12:19:54.255Z,65.30
2018-07-09T12:20:54.326Z,64.70
2018-07-09T12:21:54.361Z,65.40
2018-07-09T12:22:54.432Z,65.50
2018-07-09T12:23:54.438Z,64.30
2018-07-09T12:24:54.482Z,65.60
2018-07-09T12:25:54.725Z,67.90
2018-07-09T12:26:54.585Z,69.10
2018-07-09T12:27:54.624Z,70.70
2018-07-09T12:28:54.746Z,107.30
2018-07-09T12:29:54.721Z,67.60
2018-07-09T12:30:54.773Z,67.80
2018-07-09T12:31:54.810Z,66.90
2018-07-09T12:32:54.858Z,75.00
2018-07-09T12:33:54.950Z,128.70
2018-07-09T12:34:54.979Z,170.80
2018-07-09T12:35:55.067Z,193.10
2018-07-09T12:36:55.054Z,129.60